createdAt,value
2022-09-03T00:04:54.383Z,97532.69
2022-09-03T00:09:55.716Z,97521.56
2022-09-03T00:14:57.894Z,97524.34
2022-09-03T00:19:59.197Z,97523.63
2022-09-03T00:25:01.105Z,97529.50
2022-09-03T00:30:03.582Z,97526.06
2022-09-03T00:35:04.858Z,97523.78
2022-09-03T00:40:08.109Z,97524.84
2022-09-03T00:45:09.417Z,97529.75
2022-09-03T00:50:11.722Z,97536.47
2022-09-03T00:55:13.036Z,97539.34
2022-09-03T01:00:14.472Z,97540.41
2022-09-03T01:05:15.777Z,97543.72
2022-09-03T01:10:17.089Z,97546.16
2022-09-03T01:15:18.443Z,97557.63
2022-09-03T01:20:19.718Z,97536.28
2022-09-03T01:25:21.002Z,97538.53
2022-09-03T01:30:24.186Z,97530.78
2022-09-03T01:35:25.626Z,97536.19
2022-09-03T01:40:29.316Z,97543.28
2022-09-03T01:45:30.838Z,97537.56
2022-09-03T01:50:34.188Z,97541.22
2022-09-03T01:55:35.468Z,97530.50
2022-09-03T02:00:36.724Z,97537.59
2022-09-03T02:05:39.254Z,97536.34
2022-09-03T02:10:40.581Z,97528.44
2022-09-03T02:15:42.028Z,97530.19
2022-09-03T02:20:43.443Z,97538.13
2022-09-03T02:25:44.868Z,97527.41
2022-09-03T02:30:46.394Z,97531.41
2022-09-03T02:35:47.791Z,97536.03
2022-09-03T02:40:49.130Z,97536.44
2022-09-03T02:45:50.531Z,97548.44
2022-09-03T02:50:52.011Z,97545.19
2022-09-03T02:55:53.569Z,97540.03
2022-09-03T03:00:54.996Z,97535.22
2022-09-03T03:05:56.653Z,97545.47
2022-09-03T03:10:58.777Z,97539.81
2022-09-03T03:16:00.238Z,97547.56
2022-09-03T03:21:01.530Z,97548.41
2022-09-03T03:26:02.888Z,97558.28
2022-09-03T03:31:04.271Z,97551.78
2022-09-03T03:36:05.935Z,97543.66
2022-09-03T03:41:07.237Z,97538.50
2022-09-03T03:46:08.651Z,97542.06
2022-09-03T03:51:10.068Z,97539.09
2022-09-03T03:56:11.396Z,97530.31
2022-09-03T04:01:12.810Z,97536.91
2022-09-03T04:06:14.159Z,97536.00
2022-09-03T04:11:15.426Z,97539.91
2022-09-03T04:16:16.846Z,97535.22
2022-09-03T04:21:18.123Z,97531.78
2022-09-03T04:26:19.437Z,97533.69
2022-09-03T04:31:20.845Z,97535.34
2022-09-03T04:36:22.167Z,97549.06
2022-09-03T04:41:24.942Z,97546.03
2022-09-03T04:46:26.526Z,97554.28
2022-09-03T04:51:28.104Z,97550.31
2022-09-03T04:56:29.427Z,97562.97
2022-09-03T05:01:30.829Z,97559.94
2022-09-03T05:06:32.193Z,97567.38
2022-09-03T05:11:33.537Z,97564.97
2022-09-03T05:16:34.988Z,97562.56
2022-09-03T05:21:36.445Z,97565.63
2022-09-03T05:26:37.755Z,97563.31
2022-09-03T05:31:39.414Z,97568.72
2022-09-03T05:36:40.834Z,97561.63
2022-09-03T05:41:42.391Z,97564.84
2022-09-03T05:46:43.673Z,97569.28
2022-09-03T05:51:46.324Z,97565.47
2022-09-03T05:56:47.672Z,97561.66
2022-09-03T06:01:51.774Z,97558.13
2022-09-03T06:06:53.862Z,97556.06
2022-09-03T06:11:57.137Z,97561.34
2022-09-03T06:16:58.903Z,97571.34
2022-09-03T06:22:00.208Z,97563.19
2022-09-03T06:27:01.565Z,97563.59
2022-09-03T06:32:05.006Z,97573.56
2022-09-03T06:37:06.383Z,97582.78
2022-09-03T06:42:09.009Z,97572.47
2022-09-03T06:47:10.318Z,97586.09
2022-09-03T06:52:11.659Z,97589.28
2022-09-03T06:57:16.331Z,97589.69
2022-09-03T07:02:19.352Z,97574.38
2022-09-03T07:07:20.764Z,97561.63
2022-09-03T07:12:22.071Z,97558.00
2022-09-03T07:17:23.371Z,97548.56
2022-09-03T07:22:26.078Z,97548.34
2022-09-03T07:27:32.979Z,97541.53
2022-09-03T07:32:34.258Z,97543.31
2022-09-03T07:37:35.522Z,97548.09
2022-09-03T07:42:38.518Z,97540.63
2022-09-03T07:47:42.344Z,97538.59
2022-09-03T07:52:43.684Z,97514.22
2022-09-03T07:57:44.957Z,97503.38
2022-09-03T08:02:46.607Z,97518.31
2022-09-03T08:07:48.412Z,97507.44
2022-09-03T08:12:50.558Z,97501.97
2022-09-03T08:17:52.187Z,97499.44
2022-09-03T08:22:53.469Z,97497.41
2022-09-03T08:27:54.768Z,97493.56
2022-09-03T08:32:56.091Z,97482.56
2022-09-03T08:37:57.401Z,97486.88
2022-09-03T08:43:04.892Z,97490.50
2022-09-03T08:48:08.383Z,97484.91
2022-09-03T08:53:09.899Z,97480.34
2022-09-03T08:58:11.743Z,97472.88
2022-09-03T09:03:13.851Z,97464.22
2022-09-03T09:08:15.650Z,97466.00
2022-09-03T09:13:17.545Z,97468.16
2022-09-03T09:18:18.956Z,97470.16
2022-09-03T09:23:20.339Z,97465.34
2022-09-03T09:28:23.331Z,97461.13
2022-09-03T09:33:25.509Z,97458.63
2022-09-03T09:38:26.827Z,97463.31
2022-09-03T09:43:28.144Z,97457.22
2022-09-03T09:48:31.201Z,97458.91
2022-09-03T09:53:32.499Z,97457.31
2022-09-03T09:58:34.471Z,97452.22
2022-09-03T10:03:35.794Z,97433.84
2022-09-03T10:08:37.164Z,97443.38
2022-09-03T10:13:38.459Z,97438.88
2022-09-03T10:18:40.941Z,97434.50
2022-09-03T10:23:42.257Z,97426.66
2022-09-03T10:28:43.553Z,97425.94
2022-09-03T10:33:44.822Z,97421.50
2022-09-03T10:38:46.132Z,97417.84
2022-09-03T10:43:47.636Z,97417.31
2022-09-03T10:48:49.856Z,97428.66
2022-09-03T10:53:51.199Z,97423.38
2022-09-03T10:58:55.075Z,97419.19
2022-09-03T11:03:56.627Z,97416.19
2022-09-03T11:09:02.051Z,97403.16
2022-09-03T11:14:07.286Z,97384.00
2022-09-03T11:19:08.649Z,97386.56
2022-09-03T11:24:10.216Z,97386.19
2022-09-03T11:29:11.514Z,97385.56
2022-09-03T11:34:14.017Z,97385.09
2022-09-03T11:39:24.608Z,97381.97
2022-09-03T11:44:25.926Z,97397.34
2022-09-03T11:49:27.427Z,97395.00
2022-09-03T11:54:29.328Z,97406.50
2022-09-03T11:59:31.259Z,97407.06
2022-09-03T12:04:32.650Z,97409.94
2022-09-03T12:09:34.019Z,97405.25
2022-09-03T12:14:35.299Z,97401.53
2022-09-03T12:19:36.651Z,97393.56
2022-09-03T12:24:38.293Z,97380.31
2022-09-03T12:29:40.719Z,97385.53
2022-09-03T12:34:42.077Z,97387.91
2022-09-03T12:45:04.863Z,97370.50
2022-09-03T12:50:07.305Z,97381.56
2022-09-03T12:55:08.899Z,97374.50
2022-09-03T13:00:10.330Z,97387.44
2022-09-03T13:05:11.632Z,97396.78
2022-09-03T13:10:12.918Z,97396.81
2022-09-03T13:15:14.224Z,97413.88
2022-09-03T13:20:16.135Z,97394.97
2022-09-03T13:25:17.425Z,97407.81
2022-09-03T13:30:18.933Z,97407.66
2022-09-03T13:35:20.224Z,97407.66
2022-09-03T13:40:21.901Z,97415.59
2022-09-03T13:45:23.202Z,97416.00
2022-09-03T13:50:26.742Z,97421.91
2022-09-03T13:55:28.048Z,97405.06
2022-09-03T14:00:29.367Z,97412.38
2022-09-03T14:05:31.455Z,97409.13
2022-09-03T14:10:32.760Z,97412.81
2022-09-03T14:15:34.111Z,97429.63
2022-09-03T14:20:35.511Z,97446.53
2022-09-03T14:25:36.811Z,97461.50
2022-09-03T14:30:38.096Z,97476.41
2022-09-03T14:35:39.408Z,97469.44
2022-09-03T14:40:40.770Z,97467.19
2022-09-03T14:45:42.224Z,97476.41
2022-09-03T14:50:43.573Z,97490.28
2022-09-03T14:55:45.274Z,97500.47
2022-09-03T15:00:47.270Z,97507.97
2022-09-03T15:05:48.824Z,97486.84
2022-09-03T15:10:54.498Z,97493.75
2022-09-03T15:15:57.765Z,97495.81
2022-09-03T15:20:59.121Z,97487.53
2022-09-03T15:26:00.395Z,97481.41
2022-09-03T15:31:01.711Z,97470.34
2022-09-03T15:36:02.990Z,97468.47
2022-09-03T15:41:04.304Z,97462.66
2022-09-03T15:46:13.757Z,97425.09
2022-09-03T15:51:15.195Z,97441.41
2022-09-03T15:56:16.471Z,97436.09
2022-09-03T16:01:17.806Z,97437.91
2022-09-03T16:06:19.380Z,97438.88
2022-09-03T16:11:20.826Z,97432.16
2022-09-03T16:16:22.508Z,97437.50
2022-09-03T16:21:25.796Z,97445.44
2022-09-03T16:26:27.445Z,97446.97
2022-09-03T16:31:28.792Z,97443.78
2022-09-03T16:36:30.899Z,97442.25
2022-09-03T16:41:33.164Z,97440.97
2022-09-03T16:46:34.548Z,97449.44
2022-09-03T16:51:36.273Z,97457.06
2022-09-03T16:56:37.592Z,97472.50
2022-09-03T17:01:39.766Z,97473.31
2022-09-03T17:06:41.297Z,97486.84
2022-09-03T17:11:42.682Z,97493.47
2022-09-03T17:16:44.488Z,97488.50
2022-09-03T17:21:46.321Z,97499.75
2022-09-03T17:26:47.863Z,97493.22
2022-09-03T17:31:51.710Z,97495.94
2022-09-03T17:36:53.121Z,97497.28
2022-09-03T17:41:54.478Z,97499.25
2022-09-03T17:46:57.011Z,97507.47
2022-09-03T17:51:58.353Z,97519.94
2022-09-03T17:56:59.848Z,97533.28
2022-09-03T18:02:03.328Z,97555.22
2022-09-03T18:07:04.699Z,97569.00
2022-09-03T18:12:05.975Z,97589.22
2022-09-03T18:17:09.672Z,97594.75
2022-09-03T18:22:33.335Z,97595.81
2022-09-03T18:27:53.502Z,97589.91
2022-09-03T18:33:13.417Z,97600.00
2022-09-03T18:38:33.496Z,97607.06
2022-09-03T18:43:53.571Z,97613.94
2022-09-03T18:49:13.434Z,97623.59
2022-09-03T18:54:50.594Z,97636.13
2022-09-03T19:00:13.463Z,97624.75
2022-09-03T19:05:33.316Z,97617.69
2022-09-03T19:10:54.719Z,97623.09
2022-09-03T19:16:14.627Z,97631.59
2022-09-03T19:21:34.646Z,97641.03
2022-09-03T19:26:54.462Z,97647.13
2022-09-03T19:32:14.621Z,97648.78
2022-09-03T19:37:34.918Z,97645.84
2022-09-03T19:48:49.943Z,97655.72
2022-09-03T19:54:09.895Z,97683.03
2022-09-03T19:59:29.642Z,97677.28
2022-09-03T20:04:49.673Z,97675.44
2022-09-03T20:10:09.464Z,97685.22
2022-09-03T20:15:15.320Z,97690.16
2022-09-03T20:20:16.695Z,97694.66
2022-09-03T20:25:18.737Z,97698.81
2022-09-03T20:30:20.155Z,97710.22
2022-09-03T20:35:21.742Z,97719.81
2022-09-03T20:40:28.851Z,97720.66
2022-09-03T20:45:30.822Z,97729.06
2022-09-03T20:50:39.166Z,97730.41
2022-09-03T20:55:40.519Z,97734.00
2022-09-03T21:00:45.223Z,97742.59
2022-09-03T21:05:46.500Z,97737.88
2022-09-03T21:10:48.538Z,97746.31
2022-09-03T21:15:55.919Z,97742.13
2022-09-03T21:20:58.068Z,97744.34
2022-09-03T21:25:59.882Z,97744.25
2022-09-03T21:31:01.316Z,97736.53
2022-09-03T21:36:02.672Z,97740.13
2022-09-03T21:41:03.996Z,97747.63
2022-09-03T21:46:05.372Z,97749.28
2022-09-03T21:51:06.762Z,97757.09
2022-09-03T22:01:54.082Z,97751.78
2022-09-03T22:06:55.368Z,97754.91
2022-09-03T22:11:56.636Z,97768.84
2022-09-03T22:16:58.009Z,97762.00
2022-09-03T22:21:59.949Z,97763.00
2022-09-03T22:27:01.687Z,97768.63
2022-09-03T22:32:02.950Z,97762.16
2022-09-03T22:37:06.769Z,97766.31
2022-09-03T22:42:10.065Z,97758.94
2022-09-03T22:47:11.873Z,97765.66
2022-09-03T22:52:13.182Z,97763.72
2022-09-03T22:57:14.472Z,97759.13
2022-09-03T23:02:17.771Z,97755.50
2022-09-03T23:07:19.206Z,97756.78
2022-09-03T23:12:20.984Z,97752.91
2022-09-03T23:22:26.855Z,97774.84
2022-09-03T23:27:28.157Z,97769.53
2022-09-03T23:32:33.372Z,97770.38
2022-09-03T23:37:34.966Z,97781.56
2022-09-03T23:42:36.428Z,97780.94
2022-09-03T23:47:37.745Z,97782.09
2022-09-03T23:52:39.029Z,97793.28
2022-09-03T23:57:40.339Z,97793.31
